クグルクトゥク の空港の天気 - METARとTAF

Coppermine ( CYCO / YCO ) - カナダ ヌナブト準州Kugluktuk
飛行場実況気象(Metar)
観測時間04/25 00:00 MDT (04/25 06:00 UTC)
風向・風速静穏 0m/s
視程10km以上
天気現象細氷
少しの雲 雲底高度 7320m
気温-20℃
湿度84%
気圧1020.4hPa
METARCYCO 250600Z 00000KT 15SM IC FEW240 M20/M22 A3012 RMK CS1 CS TR SLP204
過去の天気等 Google飛行場航空写真 Wunderground天気予報

過去48時間のMETAR

飛行場予報(TAF)
発表時間: 4/25 00:38 MDT (4/25 06:38 UTC)
予報対象時間: 25日1時 MDT ~ 25日13時 MDT
風向・風速北北東 3m/s
視程10km以上
天気現象細氷
少しの雲 雲底高度 610m
少しの雲 雲底高度 7,320m
TAF CYCO 250638Z 2507/2519 02005KT P6SM IC FEW020 FEW240 RMK NXT FCST BY 251300Z